< Cyclone 200306 2003 Season Cyclone 200308 >
Cyclone 200307 (INIGO)
General InformationDetailed Track InformationTrack Information on Google MapsList of All Images || ResourceGoogle EarthGE AnimationAtom FeedGeoJSON
Detalied Best Track Wind (Time Zone = UTC)
Year Month Day Hour Lat. Long. Wind (kt) Gust (kt) Direc. of Major Storm Axis Radius of Major Storm Axis (nm) Radius of Minor Storm Axis (nm) Direc. of Major Gale Axis Radius of Major Gale Axis (nm) Radius of Minor Gale Axis (nm) Image
2003 3 31 00 -7.6 124.0 20 30 symmetric - - symmetric - - Image
2003 3 31 06 -8.2 123.0 20 30 symmetric - - symmetric - - Image
2003 3 31 12 -8.5 122.3 20 30 symmetric - - symmetric - - Image
2003 3 31 18 -8.7 121.9 20 35 symmetric - - symmetric - - Image
2003 4 1 00 -9.0 121.5 25 40 symmetric - - symmetric - - Image
2003 4 1 06 -9.5 121.0 35 50 symmetric - - symmetric - - Image
2003 4 1 12 -9.9 120.3 35 50 symmetric - - symmetric - - Image
2003 4 1 18 -10.2 119.8 40 55 symmetric - - symmetric - - Image
2003 4 2 00 -10.6 119.5 45 65 symmetric - - symmetric - - Image
2003 4 2 06 -11.0 119.0 55 80 symmetric - - symmetric - - Image
2003 4 2 12 -11.2 118.6 60 85 symmetric - - symmetric - - Image
2003 4 2 18 -11.3 118.4 65 90 symmetric - - symmetric - - Image
2003 4 3 00 -11.7 118.0 75 105 symmetric - - symmetric - - Image
2003 4 3 06 -11.8 117.5 85 120 symmetric - - symmetric - - Image
2003 4 3 12 -12.0 117.0 100 140 symmetric - - symmetric - - Image
2003 4 3 18 -12.3 116.4 110 155 symmetric - - symmetric - - Image
2003 4 4 00 -12.5 115.8 120 170 symmetric - - symmetric - - Image
2003 4 4 06 -13.0 115.2 130 185 symmetric - - symmetric - - Image
2003 4 4 12 -13.5 114.5 130 185 symmetric - - symmetric - - Image
2003 4 4 18 -13.9 114.0 125 175 symmetric - - symmetric - - Image
2003 4 5 00 -14.2 113.6 120 170 symmetric - - symmetric - - Image
2003 4 5 06 -14.3 113.2 115 160 symmetric - - symmetric - - Image
2003 4 5 12 -14.5 113.0 105 150 symmetric - - symmetric - - Image
2003 4 5 18 -14.7 112.9 95 135 symmetric - - symmetric - - Image
2003 4 6 00 -14.9 112.8 90 125 symmetric - - symmetric - - Image
2003 4 6 06 -15.2 112.7 85 120 symmetric - - symmetric - - Image
2003 4 6 12 -15.5 112.9 80 110 symmetric - - symmetric - - Image
2003 4 6 18 -15.9 113.2 75 105 symmetric - - symmetric - - Image
2003 4 7 00 -16.5 113.5 70 100 symmetric - - symmetric - - Image
2003 4 7 06 -17.4 113.9 60 85 symmetric - - symmetric - - Image
2003 4 7 12 -18.2 114.4 50 65 symmetric - - symmetric - - Image
2003 4 7 18 -19.0 114.9 40 50 symmetric - - symmetric - - Image
2003 4 7 21 -19.4 115.1 35 50 symmetric - - symmetric - - Image
2003 4 8 00 -19.9 115.3 35 50 symmetric - - symmetric - - Image
2003 4 8 03 -20.5 115.6 33 50 symmetric - - symmetric - - Image
2003 4 8 06 -21.0 116.0 33 45 symmetric - - symmetric - - Image
2003 4 8 09 -21.4 116.5 25 35 symmetric - - symmetric - - Image
< Cyclone 200306 2003 Season Cyclone 200308 >

Help